sensor_id;sensor_type;location;lat;lon;timestamp;temperature;humidity
10388;DHT22;5240;51.128;4.566;2023-03-23T00:01:03;13.10;99.90
10388;DHT22;5240;51.128;4.566;2023-03-23T00:03:32;13.00;99.90
10388;DHT22;5240;51.128;4.566;2023-03-23T00:05:59;13.10;99.90
10388;DHT22;5240;51.128;4.566;2023-03-23T00:08:32;13.00;99.90
10388;DHT22;5240;51.128;4.566;2023-03-23T00:11:03;13.00;99.90
10388;DHT22;5240;51.128;4.566;2023-03-23T00:13:30;13.10;99.90
10388;DHT22;5240;51.128;4.566;2023-03-23T00:15:58;13.10;99.90
10388;DHT22;5240;51.128;4.566;2023-03-23T00:18:26;13.10;99.90
10388;DHT22;5240;51.128;4.566;2023-03-23T00:20:55;13.10;99.90
10388;DHT22;5240;51.128;4.566;2023-03-23T00:23:24;13.10;99.90
10388;DHT22;5240;51.128;4.566;2023-03-23T00:25:53;13.10;99.90
10388;DHT22;5240;51.128;4.566;2023-03-23T00:28:23;13.10;99.90
10388;DHT22;5240;51.128;4.566;2023-03-23T00:30:56;13.10;99.90
10388;DHT22;5240;51.128;4.566;2023-03-23T00:33:24;13.00;99.90
10388;DHT22;5240;51.128;4.566;2023-03-23T00:35:53;13.00;99.90
10388;DHT22;5240;51.128;4.566;2023-03-23T00:38:21;13.10;99.90
10388;DHT22;5240;51.128;4.566;2023-03-23T00:40:48;13.10;99.90
10388;DHT22;5240;51.128;4.566;2023-03-23T00:43:17;13.10;99.90
10388;DHT22;5240;51.128;4.566;2023-03-23T00:45:45;13.10;99.90
10388;DHT22;5240;51.128;4.566;2023-03-23T00:48:18;13.10;99.90
10388;DHT22;5240;51.128;4.566;2023-03-23T00:50:45;13.10;99.90
10388;DHT22;5240;51.128;4.566;2023-03-23T00:53:13;13.10;99.90
10388;DHT22;5240;51.128;4.566;2023-03-23T00:55:41;13.20;99.90
10388;DHT22;5240;51.128;4.566;2023-03-23T00:58:09;13.20;99.90
10388;DHT22;5240;51.128;4.566;2023-03-23T01:00:36;13.10;99.90
10388;DHT22;5240;51.128;4.566;2023-03-23T01:03:04;13.10;99.90
10388;DHT22;5240;51.128;4.566;2023-03-23T01:05:34;13.10;99.90
10388;DHT22;5240;51.128;4.566;2023-03-23T01:08:01;13.20;99.90
10388;DHT22;5240;51.128;4.566;2023-03-23T01:10:30;13.10;99.90
10388;DHT22;5240;51.128;4.566;2023-03-23T01:12:58;13.10;99.90
10388;DHT22;5240;51.128;4.566;2023-03-23T01:15:25;13.10;99.90
10388;DHT22;5240;51.128;4.566;2023-03-23T01:17:53;13.10;99.90
10388;DHT22;5240;51.128;4.566;2023-03-23T01:20:20;13.10;99.90
10388;DHT22;5240;51.128;4.566;2023-03-23T01:22:47;13.00;99.90
10388;DHT22;5240;51.128;4.566;2023-03-23T01:25:14;13.10;99.90
10388;DHT22;5240;51.128;4.566;2023-03-23T01:27:42;13.10;99.90
10388;DHT22;5240;51.128;4.566;2023-03-23T01:30:11;13.10;99.90
10388;DHT22;5240;51.128;4.566;2023-03-23T01:32:38;13.10;99.90
10388;DHT22;5240;51.128;4.566;2023-03-23T01:35:06;13.10;99.90
10388;DHT22;5240;51.128;4.566;2023-03-23T01:37:33;13.10;99.90
10388;DHT22;5240;51.128;4.566;2023-03-23T01:40:02;13.10;99.90
10388;DHT22;5240;51.128;4.566;2023-03-23T01:42:33;13.10;99.90
10388;DHT22;5240;51.128;4.566;2023-03-23T01:45:27;13.20;99.90
10388;DHT22;5240;51.128;4.566;2023-03-23T01:47:59;13.20;99.90
10388;DHT22;5240;51.128;4.566;2023-03-23T01:50:28;13.20;99.90
10388;DHT22;5240;51.128;4.566;2023-03-23T01:52:58;13.10;99.90
10388;DHT22;5240;51.128;4.566;2023-03-23T01:55:27;13.20;99.90
10388;DHT22;5240;51.128;4.566;2023-03-23T01:57:55;13.20;99.90
10388;DHT22;5240;51.128;4.566;2023-03-23T02:00:24;13.20;99.90
10388;DHT22;5240;51.128;4.566;2023-03-23T02:02:54;13.10;99.90
10388;DHT22;5240;51.128;4.566;2023-03-23T02:05:26;13.10;99.90
10388;DHT22;5240;51.128;4.566;2023-03-23T02:07:54;13.10;99.90
10388;DHT22;5240;51.128;4.566;2023-03-23T02:10:24;13.10;99.90
10388;DHT22;5240;51.128;4.566;2023-03-23T02:12:51;13.10;99.90
10388;DHT22;5240;51.128;4.566;2023-03-23T02:15:19;13.10;99.90
10388;DHT22;5240;51.128;4.566;2023-03-23T02:17:54;13.10;99.90
10388;DHT22;5240;51.128;4.566;2023-03-23T02:20:45;13.10;99.90
10388;DHT22;5240;51.128;4.566;2023-03-23T02:26:29;13.10;99.90
10388;DHT22;5240;51.128;4.566;2023-03-23T02:29:13;13.10;99.90
10388;DHT22;5240;51.128;4.566;2023-03-23T02:32:10;13.10;99.90
10388;DHT22;5240;51.128;4.566;2023-03-23T02:34:42;13.10;99.90
10388;DHT22;5240;51.128;4.566;2023-03-23T02:37:14;13.10;99.90
10388;DHT22;5240;51.128;4.566;2023-03-23T02:39:47;13.10;99.90
10388;DHT22;5240;51.128;4.566;2023-03-23T02:42:19;13.10;99.90
10388;DHT22;5240;51.128;4.566;2023-03-23T02:44:48;13.10;99.90
10388;DHT22;5240;51.128;4.566;2023-03-23T02:47:20;13.00;99.90
10388;DHT22;5240;51.128;4.566;2023-03-23T02:49:52;13.00;99.90
10388;DHT22;5240;51.128;4.566;2023-03-23T02:52:22;13.00;99.90
10388;DHT22;5240;51.128;4.566;2023-03-23T02:54:51;13.00;99.90
10388;DHT22;5240;51.128;4.566;2023-03-23T02:57:20;13.00;99.90
10388;DHT22;5240;51.128;4.566;2023-03-23T02:59:47;12.90;99.90
10388;DHT22;5240;51.128;4.566;2023-03-23T03:02:16;12.90;99.90
10388;DHT22;5240;51.128;4.566;2023-03-23T03:04:51;12.90;99.90
10388;DHT22;5240;51.128;4.566;2023-03-23T03:07:41;12.90;99.90
10388;DHT22;5240;51.128;4.566;2023-03-23T03:10:18;12.90;99.90
10388;DHT22;5240;51.128;4.566;2023-03-23T03:12:52;12.90;99.90
10388;DHT22;5240;51.128;4.566;2023-03-23T03:15:26;12.80;99.90
10388;DHT22;5240;51.128;4.566;2023-03-23T03:18:01;12.80;99.90
10388;DHT22;5240;51.128;4.566;2023-03-23T03:20:32;12.80;99.90
10388;DHT22;5240;51.128;4.566;2023-03-23T03:23:00;12.80;99.90
10388;DHT22;5240;51.128;4.566;2023-03-23T03:25:28;12.80;99.90
10388;DHT22;5240;51.128;4.566;2023-03-23T03:27:56;12.80;99.90
10388;DHT22;5240;51.128;4.566;2023-03-23T03:30:28;12.80;99.90
10388;DHT22;5240;51.128;4.566;2023-03-23T03:32:57;12.80;99.90
10388;DHT22;5240;51.128;4.566;2023-03-23T03:35:26;12.80;99.90
10388;DHT22;5240;51.128;4.566;2023-03-23T03:37:55;12.70;99.90
10388;DHT22;5240;51.128;4.566;2023-03-23T03:40:23;12.70;99.90
10388;DHT22;5240;51.128;4.566;2023-03-23T03:42:50;12.70;99.90
10388;DHT22;5240;51.128;4.566;2023-03-23T03:45:19;12.70;99.90
10388;DHT22;5240;51.128;4.566;2023-03-23T03:47:46;12.70;99.90
10388;DHT22;5240;51.128;4.566;2023-03-23T03:50:13;12.70;99.90
10388;DHT22;5240;51.128;4.566;2023-03-23T03:52:42;12.70;99.90
10388;DHT22;5240;51.128;4.566;2023-03-23T03:55:11;12.70;99.90
10388;DHT22;5240;51.128;4.566;2023-03-23T03:57:38;12.70;99.90
10388;DHT22;5240;51.128;4.566;2023-03-23T04:00:08;12.80;99.90
10388;DHT22;5240;51.128;4.566;2023-03-23T04:02:43;12.80;99.90
10388;DHT22;5240;51.128;4.566;2023-03-23T04:05:13;12.80;99.90
10388;DHT22;5240;51.128;4.566;2023-03-23T04:07:40;12.70;99.90
10388;DHT22;5240;51.128;4.566;2023-03-23T04:10:10;12.70;99.90
10388;DHT22;5240;51.128;4.566;2023-03-23T04:12:38;12.70;99.90
10388;DHT22;5240;51.128;4.566;2023-03-23T04:15:07;12.70;99.90
10388;DHT22;5240;51.128;4.566;2023-03-23T04:17:35;12.70;99.90
10388;DHT22;5240;51.128;4.566;2023-03-23T04:20:04;12.80;99.90
10388;DHT22;5240;51.128;4.566;2023-03-23T04:22:38;12.80;99.90
10388;DHT22;5240;51.128;4.566;2023-03-23T04:25:11;12.70;99.90
10388;DHT22;5240;51.128;4.566;2023-03-23T04:27:38;12.80;99.90
10388;DHT22;5240;51.128;4.566;2023-03-23T04:30:10;12.70;99.90
10388;DHT22;5240;51.128;4.566;2023-03-23T04:32:38;12.80;99.90
10388;DHT22;5240;51.128;4.566;2023-03-23T04:35:08;12.80;99.90
10388;DHT22;5240;51.128;4.566;2023-03-23T04:37:37;12.80;99.90
10388;DHT22;5240;51.128;4.566;2023-03-23T04:40:05;12.80;99.90
10388;DHT22;5240;51.128;4.566;2023-03-23T04:42:38;12.80;99.90
10388;DHT22;5240;51.128;4.566;2023-03-23T04:45:07;12.80;99.90
10388;DHT22;5240;51.128;4.566;2023-03-23T04:47:36;12.80;99.90
10388;DHT22;5240;51.128;4.566;2023-03-23T04:50:07;12.80;99.90
10388;DHT22;5240;51.128;4.566;2023-03-23T04:52:35;12.70;99.90
10388;DHT22;5240;51.128;4.566;2023-03-23T04:55:07;12.70;99.90
10388;DHT22;5240;51.128;4.566;2023-03-23T04:57:35;12.60;99.90
10388;DHT22;5240;51.128;4.566;2023-03-23T05:00:05;12.50;99.90
10388;DHT22;5240;51.128;4.566;2023-03-23T05:02:35;12.50;99.90
10388;DHT22;5240;51.128;4.566;2023-03-23T05:05:02;12.40;99.90
10388;DHT22;5240;51.128;4.566;2023-03-23T05:07:29;12.40;99.90
10388;DHT22;5240;51.128;4.566;2023-03-23T05:09:56;12.40;99.90
10388;DHT22;5240;51.128;4.566;2023-03-23T05:12:23;12.40;99.90
10388;DHT22;5240;51.128;4.566;2023-03-23T05:14:50;12.40;99.90
10388;DHT22;5240;51.128;4.566;2023-03-23T05:17:19;12.30;99.90
10388;DHT22;5240;51.128;4.566;2023-03-23T05:19:49;12.30;99.90
10388;DHT22;5240;51.128;4.566;2023-03-23T05:22:17;12.30;99.90
10388;DHT22;5240;51.128;4.566;2023-03-23T05:24:46;12.40;99.90
10388;DHT22;5240;51.128;4.566;2023-03-23T05:27:13;12.40;99.90
10388;DHT22;5240;51.128;4.566;2023-03-23T05:29:43;12.40;99.90
10388;DHT22;5240;51.128;4.566;2023-03-23T05:32:11;12.40;99.90
10388;DHT22;5240;51.128;4.566;2023-03-23T05:34:40;12.40;99.90
10388;DHT22;5240;51.128;4.566;2023-03-23T05:37:09;12.40;99.90
10388;DHT22;5240;51.128;4.566;2023-03-23T05:39:37;12.40;99.90
10388;DHT22;5240;51.128;4.566;2023-03-23T05:42:05;12.40;99.90
10388;DHT22;5240;51.128;4.566;2023-03-23T05:44:33;12.40;99.90
10388;DHT22;5240;51.128;4.566;2023-03-23T05:47:00;12.50;99.90
10388;DHT22;5240;51.128;4.566;2023-03-23T05:49:27;12.50;99.90
10388;DHT22;5240;51.128;4.566;2023-03-23T05:51:55;12.40;99.90
10388;DHT22;5240;51.128;4.566;2023-03-23T05:54:22;12.40;99.90
10388;DHT22;5240;51.128;4.566;2023-03-23T05:56:49;12.40;99.90
10388;DHT22;5240;51.128;4.566;2023-03-23T05:59:16;12.30;99.90
10388;DHT22;5240;51.128;4.566;2023-03-23T06:01:43;12.20;99.90
10388;DHT22;5240;51.128;4.566;2023-03-23T06:04:10;12.10;99.90
10388;DHT22;5240;51.128;4.566;2023-03-23T06:06:39;12.00;99.90
10388;DHT22;5240;51.128;4.566;2023-03-23T06:09:10;12.00;99.90
10388;DHT22;5240;51.128;4.566;2023-03-23T06:11:37;12.00;99.90
10388;DHT22;5240;51.128;4.566;2023-03-23T06:14:04;12.00;99.90
10388;DHT22;5240;51.128;4.566;2023-03-23T06:16:31;12.10;99.90
10388;DHT22;5240;51.128;4.566;2023-03-23T06:18:58;12.10;99.90
10388;DHT22;5240;51.128;4.566;2023-03-23T06:21:27;12.20;99.90
10388;DHT22;5240;51.128;4.566;2023-03-23T06:23:55;12.20;99.90
10388;DHT22;5240;51.128;4.566;2023-03-23T06:26:27;12.20;99.90
10388;DHT22;5240;51.128;4.566;2023-03-23T06:28:55;12.30;99.90
10388;DHT22;5240;51.128;4.566;2023-03-23T06:31:24;12.30;99.90
10388;DHT22;5240;51.128;4.566;2023-03-23T06:33:51;12.40;99.90
10388;DHT22;5240;51.128;4.566;2023-03-23T06:36:18;12.40;99.90
10388;DHT22;5240;51.128;4.566;2023-03-23T06:38:45;12.40;99.90
10388;DHT22;5240;51.128;4.566;2023-03-23T06:41:13;12.40;99.90
10388;DHT22;5240;51.128;4.566;2023-03-23T06:43:42;12.30;99.90
10388;DHT22;5240;51.128;4.566;2023-03-23T06:46:09;12.20;99.90
10388;DHT22;5240;51.128;4.566;2023-03-23T06:48:36;12.10;99.90
10388;DHT22;5240;51.128;4.566;2023-03-23T06:51:04;11.90;99.90
10388;DHT22;5240;51.128;4.566;2023-03-23T06:53:31;11.60;99.90
10388;DHT22;5240;51.128;4.566;2023-03-23T06:55:58;11.30;99.90
10388;DHT22;5240;51.128;4.566;2023-03-23T06:58:25;11.10;99.90
10388;DHT22;5240;51.128;4.566;2023-03-23T07:00:57;10.90;99.90
10388;DHT22;5240;51.128;4.566;2023-03-23T07:03:25;10.80;99.90
10388;DHT22;5240;51.128;4.566;2023-03-23T07:05:53;10.70;99.90
10388;DHT22;5240;51.128;4.566;2023-03-23T07:08:20;10.60;99.90
10388;DHT22;5240;51.128;4.566;2023-03-23T07:10:50;10.50;99.90
10388;DHT22;5240;51.128;4.566;2023-03-23T07:13:19;10.50;99.90
10388;DHT22;5240;51.128;4.566;2023-03-23T07:15:46;10.40;99.90
10388;DHT22;5240;51.128;4.566;2023-03-23T07:18:16;10.40;99.90
10388;DHT22;5240;51.128;4.566;2023-03-23T07:20:43;10.40;99.90
10388;DHT22;5240;51.128;4.566;2023-03-23T07:23:10;10.40;99.90
10388;DHT22;5240;51.128;4.566;2023-03-23T07:25:38;10.40;99.90
10388;DHT22;5240;51.128;4.566;2023-03-23T07:28:06;10.40;99.90
10388;DHT22;5240;51.128;4.566;2023-03-23T07:30:33;10.30;99.90
10388;DHT22;5240;51.128;4.566;2023-03-23T07:33:04;10.30;99.90
10388;DHT22;5240;51.128;4.566;2023-03-23T07:35:33;10.20;99.90
10388;DHT22;5240;51.128;4.566;2023-03-23T07:38:01;10.20;99.90
10388;DHT22;5240;51.128;4.566;2023-03-23T07:40:29;10.20;99.90
10388;DHT22;5240;51.128;4.566;2023-03-23T07:42:59;10.20;99.90
10388;DHT22;5240;51.128;4.566;2023-03-23T07:45:27;10.20;99.90
10388;DHT22;5240;51.128;4.566;2023-03-23T07:47:55;10.20;99.90
10388;DHT22;5240;51.128;4.566;2023-03-23T07:50:22;10.20;99.90
10388;DHT22;5240;51.128;4.566;2023-03-23T07:52:53;10.10;99.90
10388;DHT22;5240;51.128;4.566;2023-03-23T07:55:20;10.10;99.90
10388;DHT22;5240;51.128;4.566;2023-03-23T07:57:51;10.10;99.90
10388;DHT22;5240;51.128;4.566;2023-03-23T08:00:21;10.10;99.90
10388;DHT22;5240;51.128;4.566;2023-03-23T08:02:50;10.20;99.90
10388;DHT22;5240;51.128;4.566;2023-03-23T08:05:18;10.20;99.90
10388;DHT22;5240;51.128;4.566;2023-03-23T08:07:46;10.30;99.90
10388;DHT22;5240;51.128;4.566;2023-03-23T08:10:16;10.30;99.90
10388;DHT22;5240;51.128;4.566;2023-03-23T08:12:44;10.50;99.90
10388;DHT22;5240;51.128;4.566;2023-03-23T08:15:13;10.50;99.90
10388;DHT22;5240;51.128;4.566;2023-03-23T08:17:42;10.60;99.90
10388;DHT22;5240;51.128;4.566;2023-03-23T08:20:10;10.70;99.90
10388;DHT22;5240;51.128;4.566;2023-03-23T08:22:40;10.80;99.90
10388;DHT22;5240;51.128;4.566;2023-03-23T08:53:37;10.70;99.90
10388;DHT22;5240;51.128;4.566;2023-03-23T08:56:06;10.70;99.90
10388;DHT22;5240;51.128;4.566;2023-03-23T08:58:33;10.90;99.90
10388;DHT22;5240;51.128;4.566;2023-03-23T09:01:00;11.20;99.90
10388;DHT22;5240;51.128;4.566;2023-03-23T09:03:32;11.40;99.90
10388;DHT22;5240;51.128;4.566;2023-03-23T09:05:59;11.50;99.90
10388;DHT22;5240;51.128;4.566;2023-03-23T09:08:27;11.60;99.90
10388;DHT22;5240;51.128;4.566;2023-03-23T09:10:59;11.70;99.90
10388;DHT22;5240;51.128;4.566;2023-03-23T09:16:03;12.20;99.90
10388;DHT22;5240;51.128;4.566;2023-03-23T09:18:32;12.20;99.90
10388;DHT22;5240;51.128;4.566;2023-03-23T09:21:04;12.30;99.90
10388;DHT22;5240;51.128;4.566;2023-03-23T09:36:51;14.30;99.90
10388;DHT22;5240;51.128;4.566;2023-03-23T09:39:22;14.90;99.90
10388;DHT22;5240;51.128;4.566;2023-03-23T09:42:15;15.10;99.90
10388;DHT22;5240;51.128;4.566;2023-03-23T09:45:02;15.90;99.90
10388;DHT22;5240;51.128;4.566;2023-03-23T09:47:37;16.80;99.90
10388;DHT22;5240;51.128;4.566;2023-03-23T09:50:10;17.20;99.90
10388;DHT22;5240;51.128;4.566;2023-03-23T09:52:44;17.40;99.90
10388;DHT22;5240;51.128;4.566;2023-03-23T09:55:15;17.30;99.90
10388;DHT22;5240;51.128;4.566;2023-03-23T09:57:49;16.80;99.90
10388;DHT22;5240;51.128;4.566;2023-03-23T10:00:22;16.70;99.90
10388;DHT22;5240;51.128;4.566;2023-03-23T10:02:55;16.90;99.90
10388;DHT22;5240;51.128;4.566;2023-03-23T10:05:32;17.20;99.90
10388;DHT22;5240;51.128;4.566;2023-03-23T10:08:08;17.20;99.90
10388;DHT22;5240;51.128;4.566;2023-03-23T10:10:45;17.00;99.90
10388;DHT22;5240;51.128;4.566;2023-03-23T10:13:22;16.30;99.90
10388;DHT22;5240;51.128;4.566;2023-03-23T10:15:56;15.90;99.90
10388;DHT22;5240;51.128;4.566;2023-03-23T10:18:38;15.50;99.90
10388;DHT22;5240;51.128;4.566;2023-03-23T10:21:13;15.30;99.90
10388;DHT22;5240;51.128;4.566;2023-03-23T10:23:51;15.10;99.90
10388;DHT22;5240;51.128;4.566;2023-03-23T10:26:38;15.30;99.90
10388;DHT22;5240;51.128;4.566;2023-03-23T10:29:26;15.60;99.90
10388;DHT22;5240;51.128;4.566;2023-03-23T10:31:58;15.40;99.90
10388;DHT22;5240;51.128;4.566;2023-03-23T10:39:46;15.20;99.90
10388;DHT22;5240;51.128;4.566;2023-03-23T10:42:22;14.90;99.90
10388;DHT22;5240;51.128;4.566;2023-03-23T10:44:51;14.80;99.90
10388;DHT22;5240;51.128;4.566;2023-03-23T10:47:18;14.70;99.90
10388;DHT22;5240;51.128;4.566;2023-03-23T10:49:49;14.60;99.90
10388;DHT22;5240;51.128;4.566;2023-03-23T10:52:30;14.80;99.90
10388;DHT22;5240;51.128;4.566;2023-03-23T10:55:06;15.00;99.90
10388;DHT22;5240;51.128;4.566;2023-03-23T10:57:37;15.20;99.90
10388;DHT22;5240;51.128;4.566;2023-03-23T11:00:07;15.20;99.90
10388;DHT22;5240;51.128;4.566;2023-03-23T11:02:45;15.20;99.90
10388;DHT22;5240;51.128;4.566;2023-03-23T11:05:36;15.20;99.90
10388;DHT22;5240;51.128;4.566;2023-03-23T11:08:13;15.10;99.90
10388;DHT22;5240;51.128;4.566;2023-03-23T11:10:58;15.10;99.90
10388;DHT22;5240;51.128;4.566;2023-03-23T11:13:30;15.10;99.90
10388;DHT22;5240;51.128;4.566;2023-03-23T11:15:58;15.00;99.90
10388;DHT22;5240;51.128;4.566;2023-03-23T11:18:35;15.00;99.90
10388;DHT22;5240;51.128;4.566;2023-03-23T11:21:04;15.10;99.90
10388;DHT22;5240;51.128;4.566;2023-03-23T11:23:34;15.30;99.90
10388;DHT22;5240;51.128;4.566;2023-03-23T11:26:10;15.80;99.90
10388;DHT22;5240;51.128;4.566;2023-03-23T11:28:44;16.20;99.90
10388;DHT22;5240;51.128;4.566;2023-03-23T11:31:13;16.40;99.90
10388;DHT22;5240;51.128;4.566;2023-03-23T11:33:47;16.70;99.90
10388;DHT22;5240;51.128;4.566;2023-03-23T11:36:14;17.10;99.90
10388;DHT22;5240;51.128;4.566;2023-03-23T11:38:43;17.30;99.90
10388;DHT22;5240;51.128;4.566;2023-03-23T11:41:18;17.10;99.90
10388;DHT22;5240;51.128;4.566;2023-03-23T11:43:46;17.20;99.90
10388;DHT22;5240;51.128;4.566;2023-03-23T11:46:22;17.40;99.90
10388;DHT22;5240;51.128;4.566;2023-03-23T11:48:57;17.90;99.90
10388;DHT22;5240;51.128;4.566;2023-03-23T11:51:31;18.00;99.90
10388;DHT22;5240;51.128;4.566;2023-03-23T11:54:04;18.10;99.90
10388;DHT22;5240;51.128;4.566;2023-03-23T11:59:16;18.90;99.90
10388;DHT22;5240;51.128;4.566;2023-03-23T12:01:51;18.70;99.90
10388;DHT22;5240;51.128;4.566;2023-03-23T12:05:03;18.60;99.90
10388;DHT22;5240;51.128;4.566;2023-03-23T12:08:05;18.70;99.90
10388;DHT22;5240;51.128;4.566;2023-03-23T12:10:43;18.30;99.90
10388;DHT22;5240;51.128;4.566;2023-03-23T12:13:31;18.50;99.90
10388;DHT22;5240;51.128;4.566;2023-03-23T12:16:10;19.50;99.90
10388;DHT22;5240;51.128;4.566;2023-03-23T12:18:48;19.70;99.90
10388;DHT22;5240;51.128;4.566;2023-03-23T12:21:22;19.60;99.90
10388;DHT22;5240;51.128;4.566;2023-03-23T12:23:59;19.30;99.90
10388;DHT22;5240;51.128;4.566;2023-03-23T12:26:31;18.40;99.90
10388;DHT22;5240;51.128;4.566;2023-03-23T12:29:15;17.90;99.90
10388;DHT22;5240;51.128;4.566;2023-03-23T12:31:56;18.00;99.90
10388;DHT22;5240;51.128;4.566;2023-03-23T12:34:33;18.30;99.90
10388;DHT22;5240;51.128;4.566;2023-03-23T12:37:19;18.70;99.90
10388;DHT22;5240;51.128;4.566;2023-03-23T12:40:08;18.20;99.90
10388;DHT22;5240;51.128;4.566;2023-03-23T12:42:45;18.00;99.90
10388;DHT22;5240;51.128;4.566;2023-03-23T12:45:21;18.00;99.90
10388;DHT22;5240;51.128;4.566;2023-03-23T12:48:01;18.30;99.90
10388;DHT22;5240;51.128;4.566;2023-03-23T12:50:32;18.50;99.90
10388;DHT22;5240;51.128;4.566;2023-03-23T12:53:04;18.30;99.90
10388;DHT22;5240;51.128;4.566;2023-03-23T12:55:36;18.20;99.90
10388;DHT22;5240;51.128;4.566;2023-03-23T12:58:07;17.90;99.90
10388;DHT22;5240;51.128;4.566;2023-03-23T13:00:52;18.00;99.90
10388;DHT22;5240;51.128;4.566;2023-03-23T13:03:25;18.20;99.90
10388;DHT22;5240;51.128;4.566;2023-03-23T13:06:04;18.00;99.90
10388;DHT22;5240;51.128;4.566;2023-03-23T13:08:35;18.10;99.90
10388;DHT22;5240;51.128;4.566;2023-03-23T13:11:05;17.90;99.90
10388;DHT22;5240;51.128;4.566;2023-03-23T13:13:45;17.70;99.90
10388;DHT22;5240;51.128;4.566;2023-03-23T13:16:23;17.50;99.90
10388;DHT22;5240;51.128;4.566;2023-03-23T13:19:02;17.40;99.90
10388;DHT22;5240;51.128;4.566;2023-03-23T13:21:53;17.30;99.90
10388;DHT22;5240;51.128;4.566;2023-03-23T13:24:49;17.20;99.90
10388;DHT22;5240;51.128;4.566;2023-03-23T13:27:22;17.20;99.90
10388;DHT22;5240;51.128;4.566;2023-03-23T13:29:50;17.30;99.90
10388;DHT22;5240;51.128;4.566;2023-03-23T13:32:18;17.20;99.90
10388;DHT22;5240;51.128;4.566;2023-03-23T13:34:48;17.00;99.90
10388;DHT22;5240;51.128;4.566;2023-03-23T13:37:22;16.90;99.90
10388;DHT22;5240;51.128;4.566;2023-03-23T13:39:52;16.90;99.90
10388;DHT22;5240;51.128;4.566;2023-03-23T13:42:23;16.80;99.90
10388;DHT22;5240;51.128;4.566;2023-03-23T13:45:18;16.70;99.90
10388;DHT22;5240;51.128;4.566;2023-03-23T13:47:47;16.60;99.90
10388;DHT22;5240;51.128;4.566;2023-03-23T13:50:27;16.30;99.90
10388;DHT22;5240;51.128;4.566;2023-03-23T13:52:59;16.20;99.90
10388;DHT22;5240;51.128;4.566;2023-03-23T13:58:11;15.80;99.90
10388;DHT22;5240;51.128;4.566;2023-03-23T14:00:47;15.70;99.90
10388;DHT22;5240;51.128;4.566;2023-03-23T14:03:19;15.70;99.90
10388;DHT22;5240;51.128;4.566;2023-03-23T14:06:02;15.60;99.90
10388;DHT22;5240;51.128;4.566;2023-03-23T14:08:40;15.60;99.90
10388;DHT22;5240;51.128;4.566;2023-03-23T14:11:13;15.40;99.90
10388;DHT22;5240;51.128;4.566;2023-03-23T14:13:45;15.40;99.90
10388;DHT22;5240;51.128;4.566;2023-03-23T14:16:16;15.40;99.90
10388;DHT22;5240;51.128;4.566;2023-03-23T14:18:51;15.40;99.90
10388;DHT22;5240;51.128;4.566;2023-03-23T14:21:31;15.40;99.90
10388;DHT22;5240;51.128;4.566;2023-03-23T14:24:03;15.40;99.90
10388;DHT22;5240;51.128;4.566;2023-03-23T14:26:34;15.50;99.90
10388;DHT22;5240;51.128;4.566;2023-03-23T14:29:04;15.60;99.90
10388;DHT22;5240;51.128;4.566;2023-03-23T14:31:32;15.70;99.90
10388;DHT22;5240;51.128;4.566;2023-03-23T14:34:04;15.80;99.90
10388;DHT22;5240;51.128;4.566;2023-03-23T14:36:35;15.90;99.90
10388;DHT22;5240;51.128;4.566;2023-03-23T14:39:05;15.80;99.90
10388;DHT22;5240;51.128;4.566;2023-03-23T14:41:35;15.60;99.90
10388;DHT22;5240;51.128;4.566;2023-03-23T14:44:05;15.60;99.90
10388;DHT22;5240;51.128;4.566;2023-03-23T14:46:35;15.60;99.90
10388;DHT22;5240;51.128;4.566;2023-03-23T14:49:04;15.50;99.90
10388;DHT22;5240;51.128;4.566;2023-03-23T14:51:32;15.20;99.90
10388;DHT22;5240;51.128;4.566;2023-03-23T14:54:00;15.20;99.90
10388;DHT22;5240;51.128;4.566;2023-03-23T14:56:34;15.30;99.90
10388;DHT22;5240;51.128;4.566;2023-03-23T14:59:04;15.50;99.90
10388;DHT22;5240;51.128;4.566;2023-03-23T15:01:33;15.50;99.90
10388;DHT22;5240;51.128;4.566;2023-03-23T15:04:03;15.50;99.90
10388;DHT22;5240;51.128;4.566;2023-03-23T15:17:45;15.60;99.90
10388;DHT22;5240;51.128;4.566;2023-03-23T15:20:21;15.80;99.90
10388;DHT22;5240;51.128;4.566;2023-03-23T15:22:49;15.90;99.90
10388;DHT22;5240;51.128;4.566;2023-03-23T15:25:21;15.90;99.90
10388;DHT22;5240;51.128;4.566;2023-03-23T15:27:51;15.80;99.90
10388;DHT22;5240;51.128;4.566;2023-03-23T15:30:31;15.70;99.90
10388;DHT22;5240;51.128;4.566;2023-03-23T15:33:10;15.70;99.90
10388;DHT22;5240;51.128;4.566;2023-03-23T15:35:40;15.90;99.90
10388;DHT22;5240;51.128;4.566;2023-03-23T15:38:17;15.90;99.90
10388;DHT22;5240;51.128;4.566;2023-03-23T15:40:45;15.90;99.90
10388;DHT22;5240;51.128;4.566;2023-03-23T15:43:17;15.80;99.90
10388;DHT22;5240;51.128;4.566;2023-03-23T15:45:56;15.80;99.90
10388;DHT22;5240;51.128;4.566;2023-03-23T15:48:27;15.80;99.90
10388;DHT22;5240;51.128;4.566;2023-03-23T15:50:55;15.70;99.90
10388;DHT22;5240;51.128;4.566;2023-03-23T15:53:30;15.70;99.90
10388;DHT22;5240;51.128;4.566;2023-03-23T15:55:59;15.70;99.90
10388;DHT22;5240;51.128;4.566;2023-03-23T15:58:28;15.80;99.90
10388;DHT22;5240;51.128;4.566;2023-03-23T16:00:55;15.90;99.90
10388;DHT22;5240;51.128;4.566;2023-03-23T16:03:25;15.90;99.90
10388;DHT22;5240;51.128;4.566;2023-03-23T16:05:56;15.90;99.90
10388;DHT22;5240;51.128;4.566;2023-03-23T16:08:28;15.90;99.90
10388;DHT22;5240;51.128;4.566;2023-03-23T16:10:55;15.80;99.90
10388;DHT22;5240;51.128;4.566;2023-03-23T16:13:22;15.70;99.90
10388;DHT22;5240;51.128;4.566;2023-03-23T16:15:49;15.60;99.90
10388;DHT22;5240;51.128;4.566;2023-03-23T16:18:18;15.50;99.90
10388;DHT22;5240;51.128;4.566;2023-03-23T16:20:46;15.30;99.90
10388;DHT22;5240;51.128;4.566;2023-03-23T16:23:14;15.20;99.90
10388;DHT22;5240;51.128;4.566;2023-03-23T16:25:42;15.00;99.90
10388;DHT22;5240;51.128;4.566;2023-03-23T16:28:10;14.80;99.90
10388;DHT22;5240;51.128;4.566;2023-03-23T16:30:38;14.70;99.90
10388;DHT22;5240;51.128;4.566;2023-03-23T16:33:05;14.50;99.90
10388;DHT22;5240;51.128;4.566;2023-03-23T16:35:33;14.50;99.90
10388;DHT22;5240;51.128;4.566;2023-03-23T16:38:00;14.50;99.90
10388;DHT22;5240;51.128;4.566;2023-03-23T16:40:29;14.60;99.90
10388;DHT22;5240;51.128;4.566;2023-03-23T16:42:56;14.60;99.90
10388;DHT22;5240;51.128;4.566;2023-03-23T16:45:23;14.70;99.90
10388;DHT22;5240;51.128;4.566;2023-03-23T16:47:52;14.60;99.90
10388;DHT22;5240;51.128;4.566;2023-03-23T16:50:21;14.70;99.90
10388;DHT22;5240;51.128;4.566;2023-03-23T16:52:48;14.70;99.90
10388;DHT22;5240;51.128;4.566;2023-03-23T16:55:16;14.80;99.90
10388;DHT22;5240;51.128;4.566;2023-03-23T16:57:44;14.80;99.90
10388;DHT22;5240;51.128;4.566;2023-03-23T17:00:14;14.90;99.90
10388;DHT22;5240;51.128;4.566;2023-03-23T17:02:45;15.00;99.90
10388;DHT22;5240;51.128;4.566;2023-03-23T17:05:13;14.90;99.90
10388;DHT22;5240;51.128;4.566;2023-03-23T17:07:41;15.00;99.90
10388;DHT22;5240;51.128;4.566;2023-03-23T17:10:10;15.00;99.90
10388;DHT22;5240;51.128;4.566;2023-03-23T17:12:38;15.00;99.90
10388;DHT22;5240;51.128;4.566;2023-03-23T17:15:08;15.00;99.90
10388;DHT22;5240;51.128;4.566;2023-03-23T17:17:35;15.00;99.90
10388;DHT22;5240;51.128;4.566;2023-03-23T17:20:03;15.00;99.90